WZZ451 EGKK-EGLL
Flight info
| Callsign | WZZ451 |
|---|---|
| Flight time | N/A |
| Altitude | 7000 |
| Route | ACORN/N0270F060 DCT BIG |
| Aircraft | A21N |
Departure
| Time | 2026-05-04 21:14 |
|---|---|
| Airport | London Gatwick Airport (EGKK) |
Arrival
| Time | N/A |
|---|---|
| Airport | London Heathrow Airport (EGLL) |
| Time | Latitude | Longitude | Altitude | Speed | Heading |
|---|---|---|---|---|---|
| 2026-05-04 21:14 | 51.15070 | -0.28863 | 4068 ft | 277 kts | 341° |
| 2026-05-04 21:14 | 51.17057 | -0.29006 | 4898 ft | 300 kts | 17° |
| 2026-05-04 21:15 | 51.18877 | -0.27084 | 5251 ft | 336 kts | 54° |
| 2026-05-04 21:15 | 51.19694 | -0.23546 | 5620 ft | 348 kts | 80° |
| 2026-05-04 21:15 | 51.20091 | -0.19920 | 5591 ft | 316 kts | 78° |
| 2026-05-04 21:15 | 51.20235 | -0.16601 | 5509 ft | 290 kts | 103° |
| 2026-05-04 21:16 | 51.19494 | -0.13747 | 5505 ft | 266 kts | 112° |
| 2026-05-04 21:16 | 51.19028 | -0.11067 | 5609 ft | 238 kts | 94° |
| 2026-05-04 21:16 | 51.19133 | -0.08603 | 5731 ft | 212 kts | 76° |
| 2026-05-04 21:16 | 51.19536 | -0.06398 | 5506 ft | 205 kts | 73° |
| 2026-05-04 21:17 | 51.19923 | -0.04198 | 5151 ft | 206 kts | 73° |
| 2026-05-04 21:17 | 51.20322 | -0.01879 | 4903 ft | 232 kts | 74° |
| 2026-05-04 21:17 | 51.20770 | 0.00714 | 4825 ft | 257 kts | 73° |
| 2026-05-04 21:17 | 51.21256 | 0.03510 | 4807 ft | 264 kts | 73° |
| 2026-05-04 21:18 | 51.21746 | 0.06333 | 4782 ft | 265 kts | 73° |
| 2026-05-04 21:18 | 51.22239 | 0.09176 | 4765 ft | 265 kts | 74° |
| 2026-05-04 21:18 | 51.22919 | 0.11823 | 5000 ft | 252 kts | 48° |
| 2026-05-04 21:18 | 51.24230 | 0.13316 | 6049 ft | 217 kts | 25° |
| 2026-05-04 21:19 | 51.25732 | 0.13966 | 5672 ft | 231 kts | 5° |
| 2026-05-04 21:19 | 51.27364 | 0.13853 | 5474 ft | 237 kts | 354° |
| 2026-05-04 21:19 | 51.28976 | 0.13315 | 5581 ft | 238 kts | 330° |
| 2026-05-04 21:19 | 51.29851 | 0.11228 | 5889 ft | 223 kts | 290° |
| 2026-05-04 21:20 | 51.30354 | 0.08786 | 5576 ft | 242 kts | 288° |
| 2026-05-04 21:20 | 51.30852 | 0.06102 | 5196 ft | 261 kts | 287° |
| 2026-05-04 21:20 | 51.31330 | 0.03218 | 4825 ft | 276 kts | 285° |
| 2026-05-04 21:20 | 51.31787 | 0.00135 | 4439 ft | 294 kts | 285° |
| 2026-05-04 21:21 | 51.32256 | -0.02980 | 4079 ft | 281 kts | 288° |
| 2026-05-04 21:21 | 51.32922 | -0.05826 | 3891 ft | 260 kts | 293° |
| 2026-05-04 21:21 | 51.33509 | -0.08493 | 4968 ft | 259 kts | 288° |
| 2026-05-04 21:21 | 51.34055 | -0.11288 | 6173 ft | 266 kts | 287° |
| 2026-05-04 21:22 | 51.34616 | -0.14135 | 7379 ft | 271 kts | 288° |
| 2026-05-04 21:22 | 51.35227 | -0.17010 | 8629 ft | 274 kts | 289° |
| 2026-05-04 21:22 | 51.35946 | -0.19850 | 9939 ft | 275 kts | 292° |
| 2026-05-04 21:22 | 51.36699 | -0.22670 | 11127 ft | 277 kts | 293° |
| 2026-05-04 21:23 | 51.37459 | -0.25515 | 12333 ft | 278 kts | 293° |
| 2026-05-04 21:23 | 51.38221 | -0.28366 | 13538 ft | 280 kts | 293° |
| 2026-05-04 21:23 | 51.38980 | -0.31210 | 14303 ft | 281 kts | 293° |
| 2026-05-04 21:23 | 51.40184 | -0.33820 | 12663 ft | 314 kts | 328° |
| 2026-05-04 21:24 | 51.42404 | -0.34736 | 10248 ft | 359 kts | 360° |
| 2026-05-04 21:24 | 51.44899 | -0.33516 | 8226 ft | 392 kts | 34° |
| 2026-05-04 21:24 | 51.46776 | -0.30730 | 8569 ft | 348 kts | 51° |
| 2026-05-04 21:24 | 51.47804 | -0.27468 | 8558 ft | 317 kts | 80° |
| 2026-05-04 21:25 | 51.47464 | -0.23904 | 6677 ft | 349 kts | 115° |
| 2026-05-04 21:25 | 51.45946 | -0.20676 | 4750 ft | 377 kts | 135° |
| 2026-05-04 21:25 | 51.44130 | -0.17911 | 4527 ft | 346 kts | 137° |
| 2026-05-04 21:25 | 51.42367 | -0.15488 | 4180 ft | 323 kts | 140° |
| 2026-05-04 21:26 | 51.40636 | -0.13360 | 3855 ft | 304 kts | 143° |